createdAt,value
2023-05-07T00:00:37.715Z,99780.78
2023-05-07T00:03:05.528Z,99776.59
2023-05-07T00:05:33.100Z,99785.91
2023-05-07T00:08:00.480Z,99781.66
2023-05-07T00:10:28.324Z,99782.97
2023-05-07T00:12:55.724Z,99784.72
2023-05-07T00:15:23.083Z,99787.34
2023-05-07T00:17:51.071Z,99781.78
2023-05-07T00:20:18.493Z,99788.94
2023-05-07T00:22:46.152Z,99782.72
2023-05-07T00:25:13.769Z,99782.38
2023-05-07T00:27:41.181Z,99784.69
2023-05-07T00:30:09.431Z,99784.81
2023-05-07T00:32:37.831Z,99784.31
2023-05-07T00:35:06.078Z,99787.75
2023-05-07T00:37:33.435Z,99785.34
2023-05-07T00:40:01.038Z,99792.78
2023-05-07T00:42:28.847Z,99791.75
2023-05-07T00:44:56.218Z,99787.87
2023-05-07T00:47:23.956Z,99785.94
2023-05-07T00:49:51.391Z,99796.34
2023-05-07T00:52:18.948Z,99793.78
2023-05-07T00:54:46.689Z,99801.63
2023-05-07T00:57:14.059Z,99786.69
2023-05-07T00:59:41.829Z,99790.34
2023-05-07T01:02:09.502Z,99792.84
2023-05-07T01:04:37.678Z,99794.38
2023-05-07T01:07:06.164Z,99796.56
2023-05-07T01:09:36.204Z,99795.72
2023-05-07T01:12:03.956Z,99787.37
2023-05-07T01:14:32.029Z,99792.34
2023-05-07T01:16:59.798Z,99794.06
2023-05-07T01:19:28.155Z,99786.09
2023-05-07T01:21:55.534Z,99795.19
2023-05-07T01:24:24.542Z,99786.66
2023-05-07T01:26:51.939Z,99791.16
2023-05-07T01:29:19.603Z,99793.50
2023-05-07T01:31:47.816Z,99803.72
2023-05-07T01:34:15.307Z,99798.28
2023-05-07T01:36:42.681Z,99803.81
2023-05-07T01:39:10.391Z,99812.06
2023-05-07T01:41:37.744Z,99806.59
2023-05-07T01:44:05.783Z,99805.13
2023-05-07T01:46:33.688Z,99805.50
2023-05-07T01:49:01.089Z,99812.06
2023-05-07T01:51:28.603Z,99806.81
2023-05-07T01:53:56.641Z,99801.91
2023-05-07T01:56:24.815Z,99806.19
2023-05-07T01:58:52.766Z,99797.44
2023-05-07T02:01:20.710Z,99787.09
2023-05-07T02:03:49.034Z,99789.03
2023-05-07T02:06:17.381Z,99782.38
2023-05-07T02:08:44.752Z,99781.63
2023-05-07T02:11:12.615Z,99781.75
2023-05-07T02:13:40.017Z,99787.56
2023-05-07T02:16:07.710Z,99779.47
2023-05-07T02:18:36.744Z,99785.22
2023-05-07T02:21:04.347Z,99784.50
2023-05-07T02:23:31.796Z,99785.69
2023-05-07T02:25:59.705Z,99786.88
2023-05-07T02:28:27.071Z,99781.31
2023-05-07T02:30:54.759Z,99788.03
2023-05-07T02:33:22.564Z,99784.78
2023-05-07T02:35:49.940Z,99788.03
2023-05-07T02:38:17.306Z,99779.28
2023-05-07T02:40:45.058Z,99778.78
2023-05-07T02:43:12.448Z,99776.81
2023-05-07T02:45:41.006Z,99776.22
2023-05-07T02:48:09.010Z,99780.37
2023-05-07T02:50:36.422Z,99780.44
2023-05-07T02:53:04.580Z,99777.31
2023-05-07T02:55:32.388Z,99772.94
2023-05-07T02:58:00.083Z,99782.13
2023-05-07T03:00:27.752Z,99783.88
2023-05-07T03:02:57.045Z,99785.38
2023-05-07T03:05:24.569Z,99790.97
2023-05-07T03:07:51.928Z,99787.63
2023-05-07T03:10:19.730Z,99778.53
2023-05-07T03:12:47.189Z,99780.19
2023-05-07T03:15:15.529Z,99775.16
2023-05-07T03:17:43.200Z,99768.62
2023-05-07T03:20:12.061Z,99771.38
2023-05-07T03:22:40.510Z,99778.19
2023-05-07T03:25:08.660Z,99785.97
2023-05-07T03:27:36.045Z,99783.88
2023-05-07T03:30:05.078Z,99786.78
2023-05-07T03:32:32.766Z,99785.13
2023-05-07T03:35:00.262Z,99781.63
2023-05-07T03:37:27.861Z,99789.13
2023-05-07T03:39:55.487Z,99792.19
2023-05-07T03:42:22.950Z,99791.75
2023-05-07T03:44:50.870Z,99783.41
2023-05-07T03:47:18.878Z,99790.72
2023-05-07T03:49:46.415Z,99798.97
2023-05-07T03:52:14.061Z,99795.84
2023-05-07T03:54:41.750Z,99801.81
2023-05-07T03:57:09.373Z,99792.97
2023-05-07T03:59:37.613Z,99798.69
2023-05-07T04:02:05.804Z,99802.25
2023-05-07T04:04:34.309Z,99801.91
2023-05-07T04:07:01.906Z,99802.75
2023-05-07T04:09:29.838Z,99798.94
2023-05-07T04:11:58.004Z,99795.03
2023-05-07T04:14:25.415Z,99797.44
2023-05-07T04:16:53.325Z,99793.72
2023-05-07T04:19:21.050Z,99797.31
2023-05-07T04:21:50.250Z,99800.81
2023-05-07T04:24:17.791Z,99800.53
2023-05-07T04:26:46.495Z,99795.75
2023-05-07T04:29:14.072Z,99804.16
2023-05-07T04:31:45.167Z,99814.62
2023-05-07T04:34:13.245Z,99820.00
2023-05-07T04:36:41.456Z,99816.50
2023-05-07T04:39:11.565Z,99815.25
2023-05-07T04:41:39.927Z,99811.63
2023-05-07T04:44:07.558Z,99808.13
2023-05-07T04:46:35.884Z,99811.09
2023-05-07T04:49:04.305Z,99809.97
2023-05-07T04:51:33.713Z,99803.81
2023-05-07T04:54:01.177Z,99797.03
2023-05-07T04:56:30.890Z,99798.62
2023-05-07T04:58:58.580Z,99791.56
2023-05-07T05:01:26.259Z,99793.78
2023-05-07T05:03:54.070Z,99795.25
2023-05-07T05:06:21.567Z,99800.16
2023-05-07T05:08:49.070Z,99806.75
2023-05-07T05:11:16.840Z,99801.22
2023-05-07T05:13:44.215Z,99805.28
2023-05-07T05:16:11.871Z,99801.91
2023-05-07T05:18:39.890Z,99803.91
2023-05-07T05:21:09.102Z,99799.38
2023-05-07T05:23:36.599Z,99787.69
2023-05-07T05:26:04.692Z,99790.78
2023-05-07T05:28:32.479Z,99794.22
2023-05-07T05:30:59.888Z,99793.13
2023-05-07T05:33:28.169Z,99789.69
2023-05-07T05:35:58.957Z,99779.56
2023-05-07T05:38:26.860Z,99774.06
2023-05-07T05:40:56.676Z,99763.47
2023-05-07T05:43:24.546Z,99754.69
2023-05-07T05:45:52.051Z,99748.81
2023-05-07T05:48:19.938Z,99742.84
2023-05-07T05:50:47.899Z,99735.91
2023-05-07T05:53:15.467Z,99739.06
2023-05-07T05:55:43.452Z,99742.00
2023-05-07T05:58:11.232Z,99740.69
2023-05-07T06:00:39.113Z,99738.47
2023-05-07T06:03:07.009Z,99746.19
2023-05-07T06:05:35.231Z,99747.50
2023-05-07T06:08:02.785Z,99743.75
2023-05-07T06:10:31.610Z,99740.69
2023-05-07T06:12:59.138Z,99746.28
2023-05-07T06:15:26.911Z,99738.59
2023-05-07T06:17:57.038Z,99734.31
2023-05-07T06:20:24.733Z,99743.31
2023-05-07T06:22:52.105Z,99741.91
2023-05-07T06:25:19.957Z,99744.44
2023-05-07T06:27:47.318Z,99739.75
2023-05-07T06:30:14.826Z,99730.00
2023-05-07T06:32:42.546Z,99745.81
2023-05-07T06:35:10.217Z,99749.72
2023-05-07T06:37:39.408Z,99747.75
2023-05-07T06:40:08.437Z,99754.22
2023-05-07T06:42:38.958Z,99764.44
2023-05-07T06:45:15.614Z,99760.72
2023-05-07T06:47:43.009Z,99769.88
2023-05-07T06:50:11.165Z,99780.09
2023-05-07T06:52:39.046Z,99779.09
2023-05-07T06:55:07.300Z,99777.06
2023-05-07T06:57:34.898Z,99772.13
2023-05-07T07:00:02.282Z,99774.69
2023-05-07T07:02:30.476Z,99770.78
2023-05-07T07:04:58.219Z,99785.44
2023-05-07T07:07:25.686Z,99789.34
2023-05-07T07:09:53.099Z,99796.16
2023-05-07T07:12:20.774Z,99801.88
2023-05-07T07:14:48.456Z,99806.25
2023-05-07T07:17:16.219Z,99803.53
2023-05-07T07:19:43.898Z,99807.91
2023-05-07T07:22:12.186Z,99805.69
2023-05-07T07:24:39.678Z,99818.78
2023-05-07T07:27:07.866Z,99818.19
2023-05-07T07:29:35.422Z,99830.63
2023-05-07T07:32:03.148Z,99826.31
2023-05-07T07:34:31.204Z,99832.53
2023-05-07T07:36:58.792Z,99833.13
2023-05-07T07:39:26.285Z,99836.75
2023-05-07T07:41:54.866Z,99842.78
2023-05-07T07:44:22.288Z,99861.09
2023-05-07T07:46:50.710Z,99851.91
2023-05-07T07:49:18.426Z,99851.13
2023-05-07T07:51:45.894Z,99855.34
2023-05-07T07:54:13.478Z,99852.91
2023-05-07T07:56:41.571Z,99855.72
2023-05-07T07:59:09.662Z,99852.59
2023-05-07T08:01:38.983Z,99845.88
2023-05-07T08:04:07.476Z,99857.88
2023-05-07T08:06:35.629Z,99858.59
2023-05-07T08:09:03.567Z,99866.44
2023-05-07T08:11:31.555Z,99851.34
2023-05-07T08:13:59.286Z,99857.06
2023-05-07T08:16:26.689Z,99857.06
2023-05-07T08:18:54.458Z,99853.44
2023-05-07T08:21:21.795Z,99844.31
2023-05-07T08:23:49.191Z,99837.31
2023-05-07T08:26:16.796Z,99843.78
2023-05-07T08:28:44.510Z,99842.59
2023-05-07T08:31:11.942Z,99844.62
2023-05-07T08:33:39.880Z,99849.97
2023-05-07T08:36:07.322Z,99849.41
2023-05-07T08:38:35.187Z,99855.94
2023-05-07T08:41:02.829Z,99853.25
2023-05-07T08:43:30.411Z,99856.84
2023-05-07T08:45:57.900Z,99854.03
2023-05-07T08:48:26.614Z,99855.75
2023-05-07T08:50:54.708Z,99856.16
2023-05-07T08:53:22.707Z,99849.16
2023-05-07T08:55:50.733Z,99856.66
2023-05-07T08:58:18.187Z,99845.84
2023-05-07T09:00:45.717Z,99848.31
2023-05-07T09:03:13.754Z,99851.50
2023-05-07T09:05:41.957Z,99835.88
2023-05-07T09:08:09.497Z,99830.72
2023-05-07T09:10:37.507Z,99830.19
2023-05-07T09:13:05.278Z,99823.53
2023-05-07T09:15:33.208Z,99825.84
2023-05-07T09:18:02.456Z,99830.56
2023-05-07T09:20:33.294Z,99832.56
2023-05-07T09:23:01.168Z,99831.25
2023-05-07T09:25:30.273Z,99841.66
2023-05-07T09:27:58.423Z,99821.88
2023-05-07T09:30:30.739Z,99826.75
2023-05-07T09:33:00.216Z,99817.13
2023-05-07T09:35:28.352Z,99822.81
2023-05-07T09:37:56.694Z,99817.75
2023-05-07T09:40:25.377Z,99813.75
2023-05-07T09:42:53.728Z,99820.25
2023-05-07T09:45:30.484Z,99822.59
2023-05-07T09:47:59.302Z,99833.03
2023-05-07T09:50:33.689Z,99842.72
2023-05-07T09:53:01.695Z,99834.84
2023-05-07T09:55:29.179Z,99839.44
2023-05-07T09:57:56.820Z,99836.13
2023-05-07T10:00:25.364Z,99840.53
2023-05-07T10:02:58.367Z,99840.66
2023-05-07T10:05:26.715Z,99853.06
2023-05-07T10:07:54.656Z,99859.00
2023-05-07T10:10:22.506Z,99857.19
2023-05-07T10:12:50.831Z,99857.34
2023-05-07T10:15:18.598Z,99866.91
2023-05-07T10:17:47.011Z,99856.69
2023-05-07T10:20:14.798Z,99852.44
2023-05-07T10:22:44.238Z,99855.06
2023-05-07T10:25:31.397Z,99861.00
2023-05-07T10:28:02.267Z,99856.03
2023-05-07T10:30:58.035Z,99861.91
2023-05-07T10:33:28.087Z,99859.47
2023-05-07T10:36:00.415Z,99857.75
2023-05-07T10:38:28.381Z,99859.44
2023-05-07T10:40:56.037Z,99867.22
2023-05-07T10:43:23.555Z,99858.38
2023-05-07T10:46:10.819Z,99853.19
2023-05-07T10:49:12.816Z,99849.41
2023-05-07T10:51:41.264Z,99848.56
2023-05-07T10:54:12.258Z,99837.25
2023-05-07T10:56:46.919Z,99835.72
2023-05-07T10:59:31.740Z,99842.97
2023-05-07T11:02:05.008Z,99843.63
2023-05-07T11:04:35.998Z,99836.44
2023-05-07T11:07:09.777Z,99833.94
2023-05-07T11:09:53.264Z,99840.87
2023-05-07T11:12:36.717Z,99828.91
2023-05-07T11:15:08.605Z,99832.81
2023-05-07T11:17:52.849Z,99823.19
2023-05-07T11:20:21.317Z,99832.19
2023-05-07T11:22:49.116Z,99813.81
2023-05-07T11:25:22.542Z,99827.91
2023-05-07T11:27:50.853Z,99823.28
2023-05-07T11:30:19.581Z,99835.75
2023-05-07T11:32:48.700Z,99829.50
2023-05-07T11:35:17.119Z,99823.59
2023-05-07T11:37:44.717Z,99819.06
2023-05-07T11:40:14.837Z,99843.06
2023-05-07T11:42:45.759Z,99813.97
2023-05-07T11:45:13.451Z,99831.06
2023-05-07T11:47:42.517Z,99825.44
2023-05-07T11:50:12.040Z,99825.28
2023-05-07T11:52:40.308Z,99825.28
2023-05-07T11:55:08.059Z,99819.22
2023-05-07T11:57:36.267Z,99822.56
2023-05-07T12:00:05.633Z,99821.41
2023-05-07T12:02:40.116Z,99817.91
2023-05-07T12:05:08.055Z,99819.28
2023-05-07T12:07:35.578Z,99820.81
2023-05-07T12:10:07.368Z,99804.50
2023-05-07T12:12:43.140Z,99803.00
2023-05-07T12:15:11.331Z,99805.63
2023-05-07T12:17:39.384Z,99815.06
2023-05-07T12:20:08.207Z,99810.34
2023-05-07T12:22:35.736Z,99802.03
2023-05-07T12:25:03.958Z,99799.50
2023-05-07T12:27:32.092Z,99801.31
2023-05-07T12:30:00.348Z,99805.00
2023-05-07T12:32:28.199Z,99788.06
2023-05-07T12:34:55.593Z,99806.47
2023-05-07T12:37:27.560Z,99807.72
2023-05-07T12:40:07.465Z,99804.16
2023-05-07T12:42:36.844Z,99800.75
2023-05-07T12:45:12.096Z,99799.50
2023-05-07T12:47:39.946Z,99800.25
2023-05-07T12:50:08.017Z,99799.78
2023-05-07T12:52:35.601Z,99804.63
2023-05-07T12:55:07.688Z,99802.97
2023-05-07T12:57:42.838Z,99803.69
2023-05-07T13:00:10.810Z,99796.13
2023-05-07T13:02:39.465Z,99799.22
2023-05-07T13:05:07.146Z,99799.44
2023-05-07T13:07:34.504Z,99805.09
2023-05-07T13:10:02.379Z,99810.72
2023-05-07T13:12:29.754Z,99802.59
2023-05-07T13:14:57.116Z,99800.84
2023-05-07T13:17:24.829Z,99793.75
2023-05-07T13:19:52.254Z,99796.69
2023-05-07T13:22:19.621Z,99787.81
2023-05-07T13:24:47.250Z,99775.25
2023-05-07T13:27:14.579Z,99784.94
2023-05-07T13:29:41.955Z,99781.50
2023-05-07T13:32:09.638Z,99776.44
2023-05-07T13:34:37.945Z,99770.50
2023-05-07T13:37:05.434Z,99791.59
2023-05-07T13:39:33.029Z,99786.63
2023-05-07T13:42:00.625Z,99780.03
2023-05-07T13:44:28.152Z,99785.53
2023-05-07T13:46:55.778Z,99772.03
2023-05-07T13:49:23.111Z,99773.22
2023-05-07T13:51:50.583Z,99770.00
2023-05-07T13:54:18.321Z,99774.66
2023-05-07T13:56:45.665Z,99769.91
2023-05-07T13:59:15.276Z,99768.28
2023-05-07T14:01:43.026Z,99765.81
2023-05-07T14:04:10.859Z,99762.41
2023-05-07T14:06:38.430Z,99749.37
2023-05-07T14:09:05.789Z,99762.75
2023-05-07T14:11:34.203Z,99768.28
2023-05-07T14:14:03.384Z,99770.53
2023-05-07T14:16:30.858Z,99761.72
2023-05-07T14:18:58.930Z,99763.13
2023-05-07T14:21:26.409Z,99761.97
2023-05-07T14:23:53.750Z,99762.19
2023-05-07T14:26:21.830Z,99763.06
2023-05-07T14:28:49.199Z,99764.91
2023-05-07T14:31:16.667Z,99751.50
2023-05-07T14:33:44.344Z,99766.50
2023-05-07T14:36:11.697Z,99762.75
2023-05-07T14:38:39.194Z,99765.94
2023-05-07T14:41:06.810Z,99766.69
2023-05-07T14:43:34.363Z,99772.78
2023-05-07T14:46:01.756Z,99774.13
2023-05-07T14:48:29.474Z,99780.53
2023-05-07T14:50:57.409Z,99771.72
2023-05-07T14:53:24.733Z,99782.34
2023-05-07T14:55:52.353Z,99774.84
2023-05-07T14:58:19.720Z,99785.56
2023-05-07T15:00:47.086Z,99785.13
2023-05-07T15:03:14.789Z,99777.50
2023-05-07T15:05:42.773Z,99782.19
2023-05-07T15:08:10.340Z,99779.72
2023-05-07T15:10:41.961Z,99786.31
2023-05-07T15:13:11.887Z,99787.19
2023-05-07T15:15:42.627Z,99783.31
2023-05-07T15:18:09.982Z,99789.44
2023-05-07T15:20:37.625Z,99781.91
2023-05-07T15:23:06.773Z,99784.88
2023-05-07T15:25:34.936Z,99783.22
2023-05-07T15:28:02.422Z,99782.56
2023-05-07T15:30:30.117Z,99774.41
2023-05-07T15:32:57.590Z,99782.81
2023-05-07T15:35:26.569Z,99787.19
2023-05-07T15:37:54.716Z,99781.75
2023-05-07T15:40:22.072Z,99780.81
2023-05-07T15:42:49.525Z,99792.09
2023-05-07T15:45:17.134Z,99787.44
2023-05-07T15:47:44.570Z,99789.81
2023-05-07T15:50:12.478Z,99802.28
2023-05-07T15:52:40.781Z,99789.72
2023-05-07T15:55:09.824Z,99792.41
2023-05-07T15:57:37.237Z,99796.94
2023-05-07T16:00:06.079Z,99792.19
2023-05-07T16:02:40.373Z,99791.06
2023-05-07T16:05:12.718Z,99793.19
2023-05-07T16:07:40.998Z,99796.84
2023-05-07T16:10:09.578Z,99801.06
2023-05-07T16:12:37.166Z,99800.00
2023-05-07T16:15:05.000Z,99811.78
2023-05-07T16:17:33.631Z,99791.12
2023-05-07T16:20:02.058Z,99791.62
2023-05-07T16:22:31.554Z,99795.09
2023-05-07T16:24:59.173Z,99792.00
2023-05-07T16:27:26.513Z,99789.94
2023-05-07T16:29:53.847Z,99793.16
2023-05-07T16:32:21.452Z,99783.47
2023-05-07T16:34:48.817Z,99783.78
2023-05-07T16:37:16.158Z,99783.62
2023-05-07T16:39:43.761Z,99788.41
2023-05-07T16:42:11.201Z,99792.59
2023-05-07T16:44:39.013Z,99783.25
2023-05-07T16:47:06.695Z,99782.34
2023-05-07T16:49:34.131Z,99778.78
2023-05-07T16:52:01.453Z,99772.78
2023-05-07T16:54:29.093Z,99784.25
2023-05-07T16:56:57.055Z,99783.84
2023-05-07T16:59:24.453Z,99786.00
2023-05-07T17:01:52.526Z,99797.84
2023-05-07T17:04:20.005Z,99797.28
2023-05-07T17:06:47.388Z,99797.50
2023-05-07T17:09:15.004Z,99801.81
2023-05-07T17:11:42.402Z,99804.50
2023-05-07T17:14:09.819Z,99804.91
2023-05-07T17:16:37.514Z,99804.03
2023-05-07T17:19:04.940Z,99810.94
2023-05-07T17:21:32.381Z,99813.81
2023-05-07T17:23:59.978Z,99807.56
2023-05-07T17:26:27.937Z,99822.72
2023-05-07T17:28:55.395Z,99833.37
2023-05-07T17:31:23.087Z,99820.38
2023-05-07T17:33:50.503Z,99835.00
2023-05-07T17:36:17.860Z,99832.28
2023-05-07T17:38:45.684Z,99828.09
2023-05-07T17:41:13.057Z,99823.16
2023-05-07T17:43:40.391Z,99826.59
2023-05-07T17:46:09.043Z,99826.88
2023-05-07T17:48:36.428Z,99837.06
2023-05-07T17:51:04.083Z,99847.31
2023-05-07T17:53:32.162Z,99851.38
2023-05-07T17:55:59.515Z,99857.00
2023-05-07T17:58:27.254Z,99866.28
2023-05-07T18:00:55.500Z,99861.56
2023-05-07T18:03:24.926Z,99868.97
2023-05-07T18:05:52.315Z,99873.72
2023-05-07T18:08:19.633Z,99869.44
2023-05-07T18:10:47.337Z,99878.41
2023-05-07T18:13:14.738Z,99884.84
2023-05-07T18:15:42.295Z,99888.97
2023-05-07T18:18:10.012Z,99887.72
2023-05-07T18:20:37.450Z,99888.94
2023-05-07T18:23:04.857Z,99894.50
2023-05-07T18:25:32.818Z,99890.47
2023-05-07T18:28:00.186Z,99910.06
2023-05-07T18:30:27.585Z,99899.75
2023-05-07T18:32:55.230Z,99915.66
2023-05-07T18:35:22.776Z,99919.06
2023-05-07T18:37:50.148Z,99905.19
2023-05-07T18:40:17.854Z,99911.69
2023-05-07T18:42:45.210Z,99912.34
2023-05-07T18:45:12.668Z,99913.88
2023-05-07T18:47:40.284Z,99909.94
2023-05-07T18:50:08.354Z,99917.37
2023-05-07T18:52:35.995Z,99923.88
2023-05-07T18:55:04.051Z,99918.13
2023-05-07T18:57:31.419Z,99920.88
2023-05-07T18:59:58.801Z,99909.28
2023-05-07T19:02:26.457Z,99918.59
2023-05-07T19:04:53.854Z,99928.56
2023-05-07T19:07:21.263Z,99931.50
2023-05-07T19:10:03.625Z,99931.53
2023-05-07T19:12:32.603Z,99941.63
2023-05-07T19:15:00.241Z,99943.53
2023-05-07T19:17:27.681Z,99962.28
2023-05-07T19:19:55.051Z,99970.56
2023-05-07T19:22:22.717Z,99985.87
2023-05-07T19:24:50.097Z,100001.84
2023-05-07T19:27:17.432Z,100011.94
2023-05-07T19:29:45.043Z,100012.38
2023-05-07T19:32:12.372Z,100020.41
2023-05-07T19:34:39.733Z,100022.06
2023-05-07T19:37:07.356Z,100031.16
2023-05-07T19:39:34.680Z,100018.06
2023-05-07T19:42:02.081Z,100032.59
2023-05-07T19:44:29.721Z,100041.91
2023-05-07T19:46:59.047Z,100043.16
2023-05-07T19:49:26.364Z,100047.22
2023-05-07T19:51:54.261Z,100050.97
2023-05-07T19:54:22.619Z,100053.59
2023-05-07T19:56:49.996Z,100057.84
2023-05-07T19:59:17.652Z,100062.81
2023-05-07T20:01:45.055Z,100068.81
2023-05-07T20:04:12.699Z,100079.25
2023-05-07T20:06:40.074Z,100083.34
2023-05-07T20:09:11.598Z,100077.97
2023-05-07T20:11:39.871Z,100075.00
2023-05-07T20:14:07.423Z,100081.00
2023-05-07T20:16:34.892Z,100089.03
2023-05-07T20:19:02.685Z,100086.75
2023-05-07T20:21:30.061Z,100102.84
2023-05-07T20:23:58.122Z,100105.75
2023-05-07T20:26:26.798Z,100110.94
2023-05-07T20:28:54.157Z,100105.97
2023-05-07T20:31:21.598Z,100105.84
2023-05-07T20:33:49.304Z,100117.09
2023-05-07T20:36:16.748Z,100119.00
2023-05-07T20:38:44.293Z,100116.28
2023-05-07T20:41:12.634Z,100125.37
2023-05-07T20:43:39.977Z,100121.72
2023-05-07T20:46:07.798Z,100120.22
2023-05-07T20:48:35.625Z,100126.41
2023-05-07T20:51:03.126Z,100125.59
2023-05-07T20:53:31.435Z,100119.00
2023-05-07T20:55:59.374Z,100129.13
2023-05-07T20:58:28.278Z,100131.16
2023-05-07T21:00:56.033Z,100132.84
2023-05-07T21:03:23.699Z,100141.72
2023-05-07T21:05:55.745Z,100149.34
2023-05-07T21:08:23.201Z,100146.88
2023-05-07T21:10:52.378Z,100151.03
2023-05-07T21:13:19.789Z,100146.47
2023-05-07T21:15:47.223Z,100153.50
2023-05-07T21:18:14.953Z,100148.81
2023-05-07T21:20:42.387Z,100154.91
2023-05-07T21:23:09.720Z,100159.47
2023-05-07T21:25:38.765Z,100155.63
2023-05-07T21:28:07.728Z,100158.41
2023-05-07T21:30:35.512Z,100163.41
2023-05-07T21:33:03.410Z,100161.22
2023-05-07T21:35:31.474Z,100155.00
2023-05-07T21:37:58.968Z,100162.13
2023-05-07T21:40:26.587Z,100163.19
2023-05-07T21:42:54.008Z,100160.91
2023-05-07T21:45:21.365Z,100160.38
2023-05-07T21:47:49.055Z,100157.81
2023-05-07T21:50:16.849Z,100162.84
2023-05-07T21:52:44.425Z,100172.91
2023-05-07T21:55:12.234Z,100171.09
2023-05-07T21:57:41.892Z,100164.97
2023-05-07T22:00:11.792Z,100170.41
2023-05-07T22:02:39.749Z,100166.94
2023-05-07T22:05:07.453Z,100173.56
2023-05-07T22:07:34.680Z,100170.94
2023-05-07T22:10:02.335Z,100172.72
2023-05-07T22:12:29.709Z,100174.78
2023-05-07T22:14:57.101Z,100169.81
2023-05-07T22:17:24.860Z,100180.53
2023-05-07T22:19:52.970Z,100173.88
2023-05-07T22:22:20.537Z,100175.59
2023-05-07T22:24:48.130Z,100175.78
2023-05-07T22:27:15.441Z,100173.56
2023-05-07T22:29:42.841Z,100169.16
2023-05-07T22:32:12.498Z,100169.28
2023-05-07T22:34:40.131Z,100172.19
2023-05-07T22:37:07.504Z,100183.97
2023-05-07T22:39:35.590Z,100182.97
2023-05-07T22:42:03.019Z,100184.53
2023-05-07T22:44:30.389Z,100190.84
2023-05-07T22:46:58.032Z,100190.13
2023-05-07T22:49:25.365Z,100185.66
2023-05-07T22:51:52.740Z,100192.22
2023-05-07T22:54:20.457Z,100205.38
2023-05-07T22:56:47.813Z,100193.63
2023-05-07T22:59:15.280Z,100203.75
2023-05-07T23:01:43.514Z,100200.56
2023-05-07T23:04:10.901Z,100204.66
2023-05-07T23:06:38.260Z,100204.94
2023-05-07T23:09:06.366Z,100215.03
2023-05-07T23:11:33.900Z,100220.47
2023-05-07T23:14:01.284Z,100211.81
2023-05-07T23:16:29.191Z,100210.84
2023-05-07T23:18:56.799Z,100215.69
2023-05-07T23:21:24.208Z,100210.06
2023-05-07T23:23:51.913Z,100208.38
2023-05-07T23:26:19.264Z,100210.56
2023-05-07T23:28:46.590Z,100205.03
2023-05-07T23:31:14.263Z,100213.37
2023-05-07T23:33:41.699Z,100215.16
2023-05-07T23:36:09.461Z,100209.97
2023-05-07T23:38:37.100Z,100214.69
2023-05-07T23:41:04.453Z,100204.06
2023-05-07T23:43:32.041Z,100198.66
2023-05-07T23:45:59.743Z,100205.53
2023-05-07T23:48:27.147Z,100201.12
2023-05-07T23:50:55.248Z,100194.19
2023-05-07T23:53:22.858Z,100200.94
2023-05-07T23:55:50.227Z,100202.50
2023-05-07T23:58:17.601Z,100207.97
